Time;durP1;ratioP1;P1;durP2;ratioP2;P2;SDS_P1;SDS_P2;PMS_P1;PMS_P2;Temp;Humidity;BMP_temperature;BMP_pressure;BME280_temperature;BME280_humidity;BME280_pressure;Samples;Min_cycle;Max_cycle;Signal;HPM_P1;HPM_P2
2022/09/22 00:01:13;;;;;;;3.92;1.77;;;7.10;99.90;;;;;;5033702;28;20454;-69
2022/09/22 00:03:41;;;;;;;4.45;1.80;;;7.10;99.90;;;;;;5036408;28;20120;-67
2022/09/22 00:06:12;;;;;;;4.50;1.77;;;7.80;99.90;;;;;;5035825;28;20497;-69
2022/09/22 00:08:47;;;;;;;6.35;1.83;;;7.00;99.90;;;;;;5017798;28;20136;-68
2022/09/22 00:11:21;;;;;;;6.07;1.98;;;6.90;99.90;;;;;;5036081;28;20095;-69
2022/09/22 00:14:07;;;;;;;5.75;2.60;;;7.00;99.90;;;;;;5018234;28;20121;-68
2022/09/22 00:16:55;;;;;;;5.22;2.00;;;7.00;99.90;;;;;;5017938;28;20437;-69
2022/09/22 00:19:23;;;;;;;5.38;2.10;;;7.00;99.90;;;;;;5036118;28;20049;-69
2022/09/22 00:21:48;;;;;;;6.80;2.35;;;7.30;99.90;;;;;;5036026;28;20147;-69
2022/09/22 00:24:15;;;;;;;6.18;2.47;;;7.00;99.90;;;;;;5035241;28;20500;-68
2022/09/22 00:26:42;;;;;;;3.83;1.77;;;7.40;99.90;;;;;;5035535;28;20485;-68
2022/09/22 00:29:09;;;;;;;3.53;1.20;;;7.30;99.90;;;;;;5035437;28;20507;-68
2022/09/22 00:31:37;;;;;;;4.38;1.10;;;7.20;99.90;;;;;;5035598;28;20085;-67
2022/09/22 00:34:02;;;;;;;3.53;1.60;;;6.80;99.90;;;;;;5035465;28;20128;-70
2022/09/22 00:36:28;;;;;;;3.70;1.77;;;7.80;99.90;;;;;;5035905;28;20128;-69
2022/09/22 00:38:56;;;;;;;5.40;2.03;;;6.80;99.90;;;;;;5035056;28;20128;-69
2022/09/22 00:41:25;;;;;;;5.78;2.15;;;7.20;99.90;;;;;;5035210;28;20567;-69
2022/09/22 00:44:13;;;;;;;5.15;2.47;;;7.50;99.90;;;;;;5035171;28;20153;-71
2022/09/22 00:46:41;;;;;;;5.60;1.80;;;6.80;99.90;;;;;;5035245;28;20397;-71
2022/09/22 00:49:07;;;;;;;4.40;1.55;;;7.00;99.90;;;;;;5035169;28;20038;-70
2022/09/22 00:51:37;;;;;;;7.43;2.30;;;7.20;99.90;;;;;;5035485;28;20096;-71
2022/09/22 00:54:07;;;;;;;7.07;1.60;;;7.50;99.90;;;;;;5034710;28;20046;-70
2022/09/22 00:56:40;;;;;;;3.45;1.02;;;7.80;99.90;;;;;;5035315;28;20045;-71
2022/09/22 00:59:11;;;;;;;2.65;1.30;;;6.50;99.90;;;;;;5035312;28;20044;-70
2022/09/22 01:01:38;;;;;;;3.72;1.75;;;6.50;99.90;;;;;;5017148;28;20099;-71
2022/09/22 01:04:03;;;;;;;3.65;1.40;;;6.60;99.90;;;;;;5035239;28;20041;-65
2022/09/22 01:06:29;;;;;;;3.75;1.60;;;7.00;99.90;;;;;;5017066;28;20052;-70
2022/09/22 01:08:56;;;;;;;3.90;1.48;;;6.40;99.90;;;;;;5000456;28;20049;-70
2022/09/22 01:11:24;;;;;;;4.25;2.00;;;6.30;99.90;;;;;;5034225;28;20458;-70
2022/09/22 01:13:59;;;;;;;4.45;2.22;;;6.50;99.90;;;;;;5034021;28;20045;-69
2022/09/22 01:16:32;;;;;;;5.53;2.00;;;6.30;99.90;;;;;;5035039;28;20045;-71
2022/09/22 01:19:21;;;;;;;5.30;2.00;;;6.40;99.90;;;;;;5034909;28;20045;-71
2022/09/22 01:22:05;;;;;;;5.50;2.10;;;6.40;99.90;;;;;;5034938;28;20072;-70
2022/09/22 01:24:49;;;;;;;6.43;2.40;;;6.40;99.90;;;;;;5034935;28;20096;-71
2022/09/22 01:27:46;;;;;;;5.82;2.03;;;6.40;99.90;;;;;;5034034;28;20485;-70
2022/09/22 01:30:18;;;;;;;6.88;2.30;;;6.40;99.90;;;;;;5034344;28;20045;-71
2022/09/22 01:33:00;;;;;;;6.43;2.20;;;6.40;99.90;;;;;;5034613;28;20121;-70
2022/09/22 01:35:31;;;;;;;5.68;1.90;;;6.40;99.90;;;;;;5034398;28;20041;-71
2022/09/22 01:38:26;;;;;;;5.55;2.40;;;6.40;99.90;;;;;;5034623;28;20037;-70
2022/09/22 01:41:05;;;;;;;6.68;2.40;;;6.40;99.90;;;;;;5034495;28;20428;-69
2022/09/22 01:43:46;;;;;;;6.85;2.22;;;6.40;99.90;;;;;;5034173;28;20049;-70
2022/09/22 01:46:33;;;;;;;6.35;2.42;;;6.40;99.90;;;;;;5034466;28;20048;-70
2022/09/22 01:49:04;;;;;;;5.82;2.47;;;6.40;99.90;;;;;;5016568;28;20056;-69
2022/09/22 01:51:36;;;;;;;5.10;2.10;;;6.40;99.90;;;;;;5016423;28;20396;-70
2022/09/22 01:54:25;;;;;;;7.60;2.95;;;6.40;99.90;;;;;;5034313;28;20385;-70
2022/09/22 01:57:14;;;;;;;5.68;2.38;;;6.40;99.90;;;;;;4934452;29;20055;-70
2022/09/22 01:59:44;;;;;;;5.32;2.38;;;6.40;99.90;;;;;;4934413;29;20060;-71
2022/09/22 02:02:27;;;;;;;6.00;2.55;;;6.40;99.90;;;;;;4934477;29;20051;-70
2022/09/22 02:04:57;;;;;;;5.68;2.38;;;6.40;99.90;;;;;;4934587;29;20134;-74
2022/09/22 02:07:32;;;;;;;6.15;2.53;;;7.30;99.90;;;;;;4934351;29;20055;-69
2022/09/22 02:10:01;;;;;;;8.20;2.65;;;6.30;99.90;;;;;;4934435;29;20054;-73
2022/09/22 02:12:27;;;;;;;4.78;1.92;;;6.90;99.90;;;;;;4934511;29;20047;-70
2022/09/22 02:14:52;;;;;;;6.38;2.17;;;6.20;99.90;;;;;;4933648;29;20134;-73
2022/09/22 02:17:18;;;;;;;4.78;1.92;;;7.20;99.90;;;;;;4934096;29;20087;-70
2022/09/22 02:19:44;;;;;;;4.22;1.85;;;6.20;99.90;;;;;;4934213;29;20460;-71
2022/09/22 02:22:11;;;;;;;5.30;1.80;;;6.20;99.90;;;;;;4934352;29;20056;-72
2022/09/22 02:24:44;;;;;;;4.85;1.65;;;6.60;99.90;;;;;;4933848;29;20050;-73
2022/09/22 02:27:14;;;;;;;4.78;1.70;;;6.00;99.90;;;;;;4934100;29;20075;-70
2022/09/22 02:29:45;;;;;;;6.20;2.33;;;6.00;99.90;;;;;;4933424;29;20508;-69
2022/09/22 02:32:15;;;;;;;5.47;2.20;;;6.30;99.90;;;;;;4918499;29;20049;-71
2022/09/22 02:34:42;;;;;;;4.22;1.90;;;6.20;99.90;;;;;;5014345;28;20049;-70
2022/09/22 02:37:24;;;;;;;4.57;2.10;;;6.80;99.90;;;;;;5033588;28;20051;-70
2022/09/22 02:40:08;;;;;;;5.22;2.10;;;6.60;99.90;;;;;;5033604;28;20120;-70
2022/09/22 02:42:42;;;;;;;5.65;2.40;;;6.00;99.90;;;;;;5033455;28;20095;-70
2022/09/22 02:45:20;;;;;;;5.63;2.83;;;6.10;99.90;;;;;;5032807;28;20049;-71
2022/09/22 02:48:14;;;;;;;6.40;2.42;;;6.70;99.90;;;;;;5015216;28;20052;-70
2022/09/22 02:50:41;;;;;;;5.80;2.45;;;6.10;99.90;;;;;;5033337;28;20085;-70
2022/09/22 02:53:16;;;;;;;6.72;2.78;;;6.10;99.90;;;;;;5032914;28;20153;-71
2022/09/22 02:55:42;;;;;;;7.40;3.03;;;6.60;99.90;;;;;;5033034;28;20053;-71
2022/09/22 02:58:09;;;;;;;5.65;2.55;;;6.10;99.90;;;;;;5032647;28;20396;-68
2022/09/22 03:00:35;;;;;;;8.23;2.67;;;6.10;99.90;;;;;;5032822;28;20060;-69
2022/09/22 03:03:01;;;;;;;5.03;2.35;;;6.10;99.90;;;;;;5032967;28;20077;-71
2022/09/22 03:05:27;;;;;;;6.38;2.67;;;6.10;99.90;;;;;;5032733;28;20064;-70
2022/09/22 03:07:52;;;;;;;7.43;2.42;;;6.10;99.90;;;;;;5032154;28;20060;-70
2022/09/22 03:10:18;;;;;;;7.20;2.78;;;7.00;99.90;;;;;;5014065;28;20045;-71
2022/09/22 03:12:44;;;;;;;8.38;2.85;;;6.00;99.90;;;;;;5032099;28;20055;-70
2022/09/22 03:15:10;;;;;;;6.40;2.60;;;6.00;99.90;;;;;;5032180;28;20053;-71
2022/09/22 03:17:37;;;;;;;7.07;2.55;;;6.00;99.90;;;;;;5031401;28;20371;-70
2022/09/22 03:20:08;;;;;;;5.03;2.53;;;6.00;99.90;;;;;;5032193;28;20056;-68
2022/09/22 03:22:34;;;;;;;5.68;2.20;;;6.00;99.90;;;;;;5032138;28;20041;-70
2022/09/22 03:24:59;;;;;;;5.28;2.20;;;5.90;99.90;;;;;;5032105;28;20038;-71
2022/09/22 03:27:26;;;;;;;6.00;2.72;;;6.40;99.90;;;;;;5031686;28;20444;-69
2022/09/22 03:29:51;;;;;;;4.82;2.30;;;6.00;99.90;;;;;;5032058;28;20053;-70
2022/09/22 03:32:17;;;;;;;5.18;2.58;;;6.40;99.90;;;;;;5013541;28;20062;-68
2022/09/22 03:34:43;;;;;;;6.78;3.20;;;6.70;99.90;;;;;;5031840;28;20049;-70
2022/09/22 03:37:09;;;;;;;5.45;2.63;;;6.50;99.90;;;;;;5035197;28;20073;-70
2022/09/22 03:39:34;;;;;;;7.88;3.10;;;6.00;99.90;;;;;;5017510;28;20042;-70
2022/09/22 03:42:00;;;;;;;7.03;2.65;;;6.60;99.90;;;;;;5035375;28;20132;-70
2022/09/22 03:44:25;;;;;;;9.07;2.85;;;6.70;99.90;;;;;;5017390;28;20107;-70
2022/09/22 03:46:51;;;;;;;7.38;3.00;;;5.90;99.90;;;;;;5035413;28;20063;-69
2022/09/22 03:49:17;;;;;;;7.72;3.55;;;5.90;99.90;;;;;;5016530;28;20064;-68
2022/09/22 03:51:43;;;;;;;7.20;2.70;;;6.00;99.90;;;;;;5035215;28;20041;-70
2022/09/22 03:54:08;;;;;;;10.32;3.03;;;5.90;99.90;;;;;;5034803;28;20042;-69
2022/09/22 03:56:34;;;;;;;5.65;2.60;;;5.90;99.90;;;;;;5035071;28;20052;-69
2022/09/22 03:59:00;;;;;;;5.70;2.67;;;5.90;99.90;;;;;;5017090;28;20111;-70
2022/09/22 04:01:25;;;;;;;7.85;2.95;;;5.90;99.90;;;;;;5035228;28;20813;-69
2022/09/22 04:03:51;;;;;;;6.95;2.88;;;6.40;99.90;;;;;;5034296;28;20493;-69
2022/09/22 04:06:17;;;;;;;5.55;2.70;;;6.30;99.90;;;;;;4978550;28;1091196;-69
2022/09/22 04:08:43;;;;;;;6.38;2.63;;;5.80;99.90;;;;;;5036165;28;20107;-69
2022/09/22 04:11:08;;;;;;;7.07;2.95;;;5.80;99.90;;;;;;5036212;28;20110;-70
2022/09/22 04:13:34;;;;;;;8.32;2.55;;;6.60;99.90;;;;;;5036201;28;20055;-69
2022/09/22 04:16:01;;;;;;;7.13;2.55;;;5.70;99.90;;;;;;5035931;28;20052;-69
2022/09/22 04:18:28;;;;;;;5.80;2.42;;;5.70;99.90;;;;;;5036181;28;20045;-69
2022/09/22 04:20:57;;;;;;;6.05;2.58;;;5.70;99.90;;;;;;5035628;28;20053;-68
2022/09/22 04:23:24;;;;;;;6.00;2.35;;;6.50;99.90;;;;;;5035869;28;20117;-69
2022/09/22 04:25:50;;;;;;;7.22;2.53;;;5.60;99.90;;;;;;5035902;28;20049;-68
2022/09/22 04:28:16;;;;;;;4.28;2.17;;;5.50;99.90;;;;;;5035991;28;20506;-69
2022/09/22 04:30:42;;;;;;;6.63;2.53;;;5.50;99.90;;;;;;5018176;28;20096;-69
2022/09/22 04:33:09;;;;;;;7.70;2.40;;;5.50;99.90;;;;;;5035898;28;20057;-69
2022/09/22 04:35:36;;;;;;;5.55;2.58;;;6.20;99.90;;;;;;5035096;28;20049;-69
2022/09/22 04:38:02;;;;;;;5.82;2.30;;;5.30;99.90;;;;;;5035704;28;20048;-69
2022/09/22 04:40:28;;;;;;;5.15;2.38;;;5.40;99.90;;;;;;5035785;28;20045;-69
2022/09/22 04:42:55;;;;;;;5.43;2.50;;;6.60;99.90;;;;;;5035741;28;20049;-69
2022/09/22 04:45:20;;;;;;;5.18;2.35;;;5.40;99.90;;;;;;5017621;28;20045;-67
2022/09/22 04:47:47;;;;;;;5.78;2.40;;;6.30;99.90;;;;;;5035218;28;20088;-69
2022/09/22 04:50:14;;;;;;;7.13;3.10;;;5.80;99.90;;;;;;5035410;28;20049;-69
2022/09/22 04:52:44;;;;;;;6.60;2.78;;;5.40;99.90;;;;;;5034997;28;20048;-69
2022/09/22 04:55:10;;;;;;;8.95;3.25;;;6.10;99.90;;;;;;5035279;28;20068;-69
2022/09/22 04:57:36;;;;;;;10.02;2.60;;;5.70;99.90;;;;;;5035422;28;20095;-69
2022/09/22 05:00:03;;;;;;;7.60;2.63;;;6.00;99.90;;;;;;5035435;28;20469;-70
2022/09/22 05:02:29;;;;;;;9.23;2.95;;;5.30;99.90;;;;;;5035065;28;20049;-66
2022/09/22 05:04:55;;;;;;;7.82;3.00;;;5.50;99.90;;;;;;5035252;28;20363;-69
2022/09/22 05:07:21;;;;;;;8.40;3.30;;;6.30;99.90;;;;;;5034459;28;20089;-68
2022/09/22 05:09:47;;;;;;;11.30;4.07;;;6.20;99.90;;;;;;5035127;28;20112;-70
2022/09/22 05:12:12;;;;;;;9.05;3.85;;;5.50;99.90;;;;;;5035140;28;20045;-70
2022/09/22 05:14:38;;;;;;;9.98;4.13;;;5.30;99.90;;;;;;5018265;28;20041;-70
2022/09/22 05:17:05;;;;;;;11.15;5.05;;;6.00;99.90;;;;;;5035163;28;20049;-67
2022/09/22 05:19:31;;;;;;;10.23;4.82;;;6.40;99.90;;;;;;5034875;28;20050;-68
2022/09/22 05:21:56;;;;;;;10.45;4.20;;;6.10;99.90;;;;;;5034983;28;20180;-73
2022/09/22 05:24:22;;;;;;;10.13;4.68;;;5.50;99.90;;;;;;5034053;28;20117;-70
2022/09/22 05:26:48;;;;;;;13.00;5.68;;;5.30;99.90;;;;;;5035279;28;20041;-69
2022/09/22 05:29:15;;;;;;;13.55;6.03;;;6.20;99.90;;;;;;5034907;28;20512;-70
2022/09/22 05:31:41;;;;;;;14.35;6.85;;;5.30;99.90;;;;;;5034511;28;20508;-69
2022/09/22 05:34:06;;;;;;;20.52;9.60;;;5.40;99.90;;;;;;5034524;28;20049;-68
2022/09/22 05:36:32;;;;;;;22.23;11.32;;;5.50;99.90;;;;;;5034825;28;20041;-68
2022/09/22 05:38:57;;;;;;;20.38;8.63;;;6.10;99.90;;;;;;5034281;28;20056;-69
2022/09/22 05:41:23;;;;;;;9.52;4.47;;;5.20;99.90;;;;;;5034547;28;20037;-66
2022/09/22 05:43:49;;;;;;;5.28;2.53;;;5.20;99.90;;;;;;5016633;28;20084;-69
2022/09/22 05:46:14;;;;;;;7.90;2.97;;;5.10;99.90;;;;;;5034616;28;20041;-67
2022/09/22 05:48:40;;;;;;;6.75;2.42;;;5.10;99.90;;;;;;5012091;28;20412;-68
2022/09/22 05:51:06;;;;;;;4.53;1.88;;;5.10;99.90;;;;;;5031267;28;20045;-70
2022/09/22 05:53:31;;;;;;;5.85;2.42;;;5.10;99.90;;;;;;5030929;28;20048;-67
2022/09/22 05:55:58;;;;;;;6.55;3.28;;;5.10;99.90;;;;;;5032374;28;20396;-69
2022/09/22 05:58:24;;;;;;;4.85;2.03;;;5.20;99.90;;;;;;5013952;28;20079;-67
2022/09/22 06:00:50;;;;;;;9.35;2.63;;;5.10;99.90;;;;;;5014368;28;20519;-69
2022/09/22 06:03:16;;;;;;;6.50;2.60;;;5.60;99.90;;;;;;5014345;28;20044;-70
2022/09/22 06:05:43;;;;;;;5.45;2.10;;;5.80;99.90;;;;;;5019967;28;20049;-69
2022/09/22 06:08:09;;;;;;;4.63;2.03;;;5.30;99.90;;;;;;5032278;28;20053;-70
2022/09/22 06:10:36;;;;;;;9.73;3.88;;;5.20;99.90;;;;;;5013894;28;20057;-71
2022/09/22 06:13:04;;;;;;;8.50;3.65;;;5.30;99.90;;;;;;5032498;28;20496;-70
2022/09/22 06:15:32;;;;;;;9.65;4.60;;;5.50;99.90;;;;;;5031626;28;20120;-67
2022/09/22 06:17:59;;;;;;;9.32;4.50;;;5.50;99.90;;;;;;5030898;28;20124;-69
2022/09/22 06:20:25;;;;;;;9.88;4.70;;;5.60;99.90;;;;;;5033857;28;20044;-67
2022/09/22 06:22:51;;;;;;;13.50;5.28;;;5.70;99.90;;;;;;5033506;28;20052;-70
2022/09/22 06:25:17;;;;;;;9.85;4.93;;;6.30;99.90;;;;;;5033645;28;20042;-68
2022/09/22 06:27:43;;;;;;;14.30;5.70;;;5.80;99.90;;;;;;5033346;28;20037;-71
2022/09/22 06:30:10;;;;;;;10.82;4.95;;;5.90;99.90;;;;;;5015713;28;20404;-66
2022/09/22 06:32:39;;;;;;;11.20;5.97;;;6.00;99.90;;;;;;5033824;28;20117;-69
2022/09/22 06:35:06;;;;;;;15.75;5.82;;;6.00;99.90;;;;;;5032477;28;20128;-66
2022/09/22 06:37:32;;;;;;;10.07;4.53;;;6.10;99.90;;;;;;5013823;28;20041;-68
2022/09/22 06:39:58;;;;;;;11.60;5.65;;;7.10;99.90;;;;;;5013869;28;20041;-70
2022/09/22 06:42:24;;;;;;;11.40;6.07;;;6.20;99.90;;;;;;5013375;28;20045;-69
2022/09/22 06:44:50;;;;;;;14.60;6.63;;;6.30;99.90;;;;;;5013672;28;20397;-69
2022/09/22 06:47:15;;;;;;;14.20;7.00;;;6.40;99.90;;;;;;5013395;28;20042;-70
2022/09/22 06:49:41;;;;;;;13.52;7.15;;;7.20;99.90;;;;;;5013806;28;20045;-72
2022/09/22 06:52:12;;;;;;;13.60;5.80;;;6.50;99.90;;;;;;5022533;28;20064;-75
2022/09/22 06:54:39;;;;;;;13.98;7.15;;;7.10;99.90;;;;;;5031155;28;20087;-75
2022/09/22 06:57:05;;;;;;;13.85;6.88;;;6.80;99.90;;;;;;5031456;28;20489;-75
2022/09/22 06:59:32;;;;;;;15.55;7.00;;;6.80;99.90;;;;;;5027989;28;20132;-75
2022/09/22 07:01:57;;;;;;;12.13;6.32;;;6.90;99.90;;;;;;5013159;28;20567;-73
2022/09/22 07:04:23;;;;;;;14.07;7.28;;;7.00;99.90;;;;;;5031873;28;20122;-75
2022/09/22 07:06:49;;;;;;;13.60;7.32;;;7.20;99.90;;;;;;5012978;28;20053;-76
2022/09/22 07:09:15;;;;;;;14.48;8.00;;;7.10;99.90;;;;;;5031454;28;20103;-72
2022/09/22 07:11:41;;;;;;;13.80;7.15;;;7.20;99.90;;;;;;5031306;28;20041;-75
2022/09/22 07:14:07;;;;;;;16.13;8.43;;;7.50;99.90;;;;;;4997687;28;20112;-73
2022/09/22 07:16:34;;;;;;;17.80;8.25;;;7.80;99.90;;;;;;5010129;28;20094;-73
2022/09/22 07:19:00;;;;;;;13.85;7.82;;;7.60;99.90;;;;;;5031420;28;20171;-75
2022/09/22 07:21:31;;;;;;;17.48;8.70;;;7.70;99.90;;;;;;5031465;28;20567;-75
2022/09/22 07:23:57;;;;;;;18.83;8.52;;;7.80;99.90;;;;;;5031326;28;20378;-75
2022/09/22 07:26:32;;;;;;;14.40;7.28;;;7.90;99.90;;;;;;5013943;28;20132;-75
2022/09/22 07:29:00;;;;;;;19.05;8.80;;;8.10;99.90;;;;;;5030477;28;20061;-76
2022/09/22 07:31:30;;;;;;;18.92;7.25;;;8.30;99.90;;;;;;5013507;28;20049;-71
2022/09/22 07:34:00;;;;;;;17.98;8.55;;;9.10;99.90;;;;;;5022924;28;20115;-70
2022/09/22 07:36:28;;;;;;;17.58;7.03;;;8.40;99.90;;;;;;5022482;28;20138;-70
2022/09/22 07:38:56;;;;;;;20.00;8.07;;;8.50;99.90;;;;;;5023772;28;20043;-69
2022/09/22 07:41:26;;;;;;;16.95;7.38;;;8.60;99.90;;;;;;5006745;28;20050;-69
2022/09/22 07:43:55;;;;;;;14.30;7.13;;;8.80;99.90;;;;;;5025954;28;20054;-70
2022/09/22 07:46:21;;;;;;;12.70;6.32;;;8.90;99.90;;;;;;5030793;28;20041;-69
2022/09/22 07:48:47;;;;;;;11.73;6.35;;;9.00;99.90;;;;;;5030642;28;20412;-70
2022/09/22 07:51:18;;;;;;;13.75;6.43;;;9.30;99.90;;;;;;5030429;28;20477;-68
2022/09/22 07:53:45;;;;;;;13.88;6.63;;;9.30;99.90;;;;;;5030835;28;20096;-70
2022/09/22 07:56:13;;;;;;;12.93;7.32;;;9.50;99.90;;;;;;5030771;28;20045;-70
2022/09/22 07:58:44;;;;;;;16.17;7.63;;;9.70;99.90;;;;;;5031203;28;20044;-72
2022/09/22 08:01:11;;;;;;;15.48;6.82;;;9.80;99.90;;;;;;5011980;28;20052;-70
2022/09/22 08:03:38;;;;;;;13.30;7.03;;;9.90;99.90;;;;;;5031124;28;20381;-68
2022/09/22 08:06:11;;;;;;;14.30;6.15;;;10.60;99.90;;;;;;5030521;28;20053;-69
2022/09/22 08:08:52;;;;;;;13.20;6.57;;;10.20;99.90;;;;;;5029113;28;20151;-70
2022/09/22 08:11:20;;;;;;;15.20;6.47;;;10.30;99.90;;;;;;5028483;28;20037;-70
2022/09/22 08:13:53;;;;;;;12.23;5.90;;;10.60;99.90;;;;;;5030880;28;20050;-73
2022/09/22 08:16:24;;;;;;;13.10;5.78;;;10.60;99.90;;;;;;5013057;28;20059;-70
2022/09/22 08:18:57;;;;;;;12.02;6.47;;;10.80;99.90;;;;;;5030639;28;20120;-71
2022/09/22 08:21:29;;;;;;;10.80;5.78;;;11.20;99.90;;;;;;5030251;28;20057;-71
2022/09/22 08:23:55;;;;;;;12.38;6.25;;;11.00;99.90;;;;;;5016298;28;20061;-71
2022/09/22 08:26:21;;;;;;;15.82;5.50;;;11.10;99.90;;;;;;5034938;28;20041;-78
2022/09/22 08:28:51;;;;;;;11.05;5.45;;;11.30;99.90;;;;;;5034231;28;20068;-75
2022/09/22 08:31:19;;;;;;;12.15;5.25;;;11.40;99.90;;;;;;4999225;28;20046;-72
2022/09/22 08:33:45;;;;;;;11.10;5.90;;;11.60;99.90;;;;;;5032747;28;20107;-69
2022/09/22 08:36:11;;;;;;;12.73;6.10;;;11.70;99.90;;;;;;5034302;28;20045;-69
2022/09/22 08:38:38;;;;;;;10.93;4.70;;;11.90;99.90;;;;;;5033952;28;20045;-70
2022/09/22 08:41:23;;;;;;;12.93;5.00;;;12.00;99.90;;;;;;5031385;28;20436;-69
2022/09/22 08:43:56;;;;;;;13.48;4.63;;;12.20;99.90;;;;;;5014724;28;20049;-69
2022/09/22 08:46:38;;;;;;;13.57;4.72;;;12.30;99.90;;;;;;5029746;28;20046;-69
2022/09/22 08:52:24;;;;;;;9.63;4.07;;;12.50;99.90;;;;;;5033987;28;20136;-69
2022/09/22 08:54:50;;;;;;;12.48;4.43;;;12.60;99.90;;;;;;5016082;28;20053;-69
2022/09/22 08:57:55;;;;;;;12.13;4.53;;;12.70;99.90;;;;;;5015748;28;20056;-70
2022/09/22 09:00:22;;;;;;;12.75;4.45;;;12.80;99.90;;;;;;5033089;28;20046;-69
2022/09/22 09:02:49;;;;;;;9.98;4.20;;;13.00;99.90;;;;;;5014409;28;20080;-70
2022/09/22 09:05:59;;;;;;;9.70;4.40;;;13.00;99.90;;;;;;4998140;28;20049;-68
2022/09/22 09:08:36;;;;;;;11.63;5.10;;;13.20;99.90;;;;;;4917547;29;20129;-68
2022/09/22 09:11:25;;;;;;;11.30;4.20;;;13.40;99.90;;;;;;4917730;29;20062;-68
2022/09/22 09:14:11;;;;;;;18.45;4.45;;;13.50;99.90;;;;;;4917812;29;20067;-69
2022/09/22 09:16:51;;;;;;;9.10;3.28;;;13.60;99.90;;;;;;4933857;29;20051;-69
2022/09/22 09:19:27;;;;;;;8.52;3.38;;;13.70;99.90;;;;;;4930693;29;20062;-70
2022/09/22 09:22:00;;;;;;;7.35;3.15;;;13.80;99.90;;;;;;4933635;29;20055;-69
2022/09/22 09:24:33;;;;;;;7.28;3.42;;;13.90;99.90;;;;;;4933363;29;20497;-70
2022/09/22 09:27:07;;;;;;;9.65;3.30;;;14.00;99.90;;;;;;4933802;29;20074;-71
2022/09/22 09:30:06;;;;;;;8.60;3.17;;;14.10;99.90;;;;;;4933062;29;20048;-70
2022/09/22 09:33:09;;;;;;;9.82;2.90;;;14.30;99.90;;;;;;4867965;29;20057;-69
2022/09/22 09:35:52;;;;;;;8.55;3.17;;;14.40;99.90;;;;;;4869386;29;20093;-71
2022/09/22 09:38:35;;;;;;;7.20;2.60;;;14.50;99.90;;;;;;4858489;29;20134;-73
2022/09/22 09:41:13;;;;;;;8.68;2.90;;;14.60;99.90;;;;;;4850582;29;20060;-72
2022/09/22 09:43:41;;;;;;;7.05;2.47;;;14.80;99.90;;;;;;4854604;29;20058;-78
2022/09/22 09:46:12;;;;;;;9.13;2.72;;;14.80;99.90;;;;;;4901679;29;20063;-76
2022/09/22 09:49:04;;;;;;;7.28;2.72;;;14.90;99.90;;;;;;4907484;28;20044;-77
2022/09/22 09:51:38;;;;;;;6.03;2.85;;;15.00;99.90;;;;;;4919452;29;20048;-77
2022/09/22 09:54:11;;;;;;;7.30;3.00;;;15.20;99.90;;;;;;4921380;29;20055;-80
2022/09/22 09:57:00;;;;;;;11.35;2.70;;;15.30;99.90;;;;;;4919938;29;20070;-75
2022/09/22 10:02:16;;;;;;;6.85;2.58;;;15.50;99.90;;;;;;4913785;29;20095;-77
2022/09/22 10:04:49;;;;;;;10.43;2.33;;;15.60;99.90;;;;;;4922989;29;20554;-75
2022/09/22 10:07:16;;;;;;;12.02;1.80;;;15.70;99.90;;;;;;4916215;29;20060;-79
2022/09/22 10:09:48;;;;;;;7.75;2.10;;;15.70;99.90;;;;;;5013024;28;20053;-76
2022/09/22 10:12:29;;;;;;;5.25;2.00;;;15.90;99.90;;;;;;5032249;28;20497;-80
2022/09/22 10:14:57;;;;;;;6.80;2.35;;;15.90;99.90;;;;;;5032666;28;20504;-78
2022/09/22 10:17:28;;;;;;;4.05;1.80;;;15.90;99.90;;;;;;5032523;28;20041;-79
2022/09/22 10:20:20;;;;;;;6.80;1.90;;;16.10;99.90;;;;;;5032371;28;20124;-81
2022/09/22 10:22:47;;;;;;;;;;;16.10;99.90;;;;;;5012818;28;20485;-80
2022/09/22 10:25:24;;;;;;;4.60;2.15;;;16.20;99.90;;;;;;5032405;28;19921;-80
2022/09/22 10:28:16;;;;;;;5.82;2.50;;;16.40;99.90;;;;;;5032409;28;20041;-79
2022/09/22 10:30:44;;;;;;;4.20;1.80;;;16.40;99.90;;;;;;5029603;28;20129;-79
2022/09/22 10:33:21;;;;;;;8.43;2.10;;;16.40;99.90;;;;;;5032332;28;20513;-77
2022/09/22 10:36:09;;;;;;;4.75;1.65;;;16.50;99.90;;;;;;5012045;28;20465;-78
2022/09/22 10:38:41;;;;;;;4.15;1.90;;;16.60;99.90;;;;;;5028622;28;20092;-80
2022/09/22 10:41:17;;;;;;;6.53;2.30;;;16.70;99.90;;;;;;5031664;28;20054;-79
2022/09/22 10:43:52;;;;;;;4.90;2.03;;;16.80;99.90;;;;;;5032277;28;20030;-79
2022/09/22 10:46:41;;;;;;;6.30;1.90;;;16.90;99.90;;;;;;5013900;28;20061;-79
2022/09/22 10:49:20;;;;;;;6.68;2.17;;;17.10;99.90;;;;;;5032142;28;20038;-87
2022/09/22 10:51:55;;;;;;;8.35;2.35;;;17.10;99.90;;;;;;5031821;28;20103;-77
2022/09/22 10:54:29;;;;;;;7.00;2.30;;;17.10;99.90;;;;;;5031007;28;20056;-79
2022/09/22 10:56:58;;;;;;;7.68;2.20;;;17.20;99.90;;;;;;5031209;28;20065;-75
2022/09/22 11:00:23;;;;;;;6.07;1.80;;;17.30;99.90;;;;;;5025807;28;20547;-76
2022/09/22 11:03:13;;;;;;;6.95;2.28;;;17.40;99.90;;;;;;4873960;29;20049;-73
2022/09/22 11:12:15;;;;;;;6.18;2.92;;;17.80;99.90;;;;;;4893915;29;20052;-72
2022/09/22 11:14:47;;;;;;;8.80;2.40;;;17.90;99.90;;;;;;4878313;29;20061;-74
2022/09/22 11:17:50;;;;;;;7.23;2.90;;;17.90;99.90;;;;;;4894389;29;20151;-73
2022/09/22 11:20:21;;;;;;;6.75;2.63;;;18.00;99.90;;;;;;4809618;29;20058;-71
2022/09/22 11:23:05;;;;;;;8.80;3.63;;;18.00;99.90;;;;;;4820252;29;20059;-73
2022/09/22 11:25:42;;;;;;;7.50;3.13;;;18.10;99.90;;;;;;4818747;29;20059;-72
2022/09/22 11:28:42;;;;;;;7.75;3.25;;;18.20;99.90;;;;;;4821238;29;20499;-72
2022/09/22 11:31:29;;;;;;;8.95;3.20;;;18.30;99.90;;;;;;4749709;30;20052;-73
2022/09/22 11:34:18;;;;;;;7.72;3.25;;;18.40;99.90;;;;;;4749665;30;20528;-73
2022/09/22 11:36:57;;;;;;;9.50;3.65;;;18.50;99.90;;;;;;4783487;29;20058;-72
2022/09/22 11:39:49;;;;;;;8.90;3.40;;;18.60;99.90;;;;;;4841938;29;20057;-69
2022/09/22 11:42:28;;;;;;;8.70;3.50;;;18.40;99.90;;;;;;4857747;29;20064;-72
2022/09/22 11:45:14;;;;;;;7.15;2.83;;;18.40;99.90;;;;;;4857837;29;20294;-74
2022/09/22 11:47:55;;;;;;;8.93;3.15;;;18.30;99.90;;;;;;4858198;29;20049;-73
2022/09/22 11:51:11;;;;;;;8.95;2.90;;;18.30;99.90;;;;;;4858001;29;20058;-76
2022/09/22 11:53:57;;;;;;;7.30;3.53;;;18.30;99.90;;;;;;4857922;29;20053;-75
2022/09/22 11:56:31;;;;;;;8.85;3.60;;;18.40;99.90;;;;;;4914154;29;20059;-74
2022/09/22 11:59:03;;;;;;;8.07;3.35;;;18.40;99.90;;;;;;4952712;29;20183;-74
2022/09/22 12:01:36;;;;;;;7.03;2.90;;;18.40;99.90;;;;;;4954072;29;20056;-74
2022/09/22 12:04:07;;;;;;;9.07;3.33;;;18.30;99.90;;;;;;4953772;29;20453;-74
2022/09/22 12:06:40;;;;;;;8.20;3.85;;;18.20;99.90;;;;;;4954543;29;20047;-74
2022/09/22 12:09:11;;;;;;;;;;;18.20;99.90;;;;;;5015215;28;20061;-72
2022/09/22 12:11:38;;;;;;;8.23;3.42;;;18.00;99.90;;;;;;5014268;28;20012;-74
2022/09/22 12:14:05;;;;;;;8.43;3.40;;;17.80;99.90;;;;;;5027978;28;20052;-72
2022/09/22 12:16:52;;;;;;;7.60;3.33;;;17.70;99.90;;;;;;5033373;28;20092;-74
2022/09/22 12:19:40;;;;;;;8.75;2.85;;;17.80;99.90;;;;;;5027469;28;20064;-76
2022/09/22 12:22:28;;;;;;;7.93;2.90;;;18.20;99.90;;;;;;5031765;28;20552;-74
2022/09/22 12:24:53;;;;;;;7.57;3.13;;;18.50;99.90;;;;;;5034238;28;20065;-75
2022/09/22 12:27:23;;;;;;;9.00;2.90;;;18.70;99.90;;;;;;5034442;28;20416;-75
2022/09/22 12:30:00;;;;;;;6.90;2.75;;;18.90;99.90;;;;;;5034042;28;20090;-75
2022/09/22 12:32:49;;;;;;;8.18;3.40;;;18.90;99.90;;;;;;5034181;28;20500;-73
2022/09/22 12:35:29;;;;;;;7.20;3.17;;;18.70;99.90;;;;;;5016109;28;20057;-76
2022/09/22 12:37:59;;;;;;;7.65;2.97;;;18.40;99.90;;;;;;5033949;28;20120;-75
2022/09/22 12:40:34;;;;;;;6.65;2.58;;;18.10;99.90;;;;;;5034228;28;20435;-76
2022/09/22 12:43:00;;;;;;;7.43;2.72;;;17.90;99.90;;;;;;5034204;28;20046;-77
2022/09/22 12:45:35;;;;;;;5.93;2.85;;;17.80;99.90;;;;;;5034170;28;20037;-77
2022/09/22 12:48:22;;;;;;;9.82;3.25;;;18.00;99.90;;;;;;5033908;28;20103;-75
2022/09/22 12:50:50;;;;;;;10.35;3.45;;;18.20;99.90;;;;;;5032753;28;20061;-77
2022/09/22 12:53:21;;;;;;;7.93;3.05;;;18.50;99.90;;;;;;5034302;28;20049;-76
2022/09/22 12:55:50;;;;;;;8.73;2.90;;;18.40;99.90;;;;;;5016011;28;20049;-77
2022/09/22 12:58:25;;;;;;;8.32;2.60;;;18.40;99.90;;;;;;5034277;28;20481;-76
2022/09/22 13:00:55;;;;;;;6.25;2.85;;;18.60;99.90;;;;;;5032886;28;20056;-79
2022/09/22 13:03:23;;;;;;;8.27;2.88;;;18.60;99.90;;;;;;5033892;28;20120;-79
2022/09/22 13:05:56;;;;;;;6.68;2.65;;;18.80;99.90;;;;;;5033279;28;20052;-78
2022/09/22 13:08:21;;;;;;;;;;;18.90;99.90;;;;;;5016254;28;20056;-75
2022/09/22 13:10:57;;;;;;;7.82;2.40;;;19.00;99.80;;;;;;5015438;28;19921;-75
2022/09/22 13:13:28;;;;;;;7.05;2.63;;;18.80;99.90;;;;;;5031689;28;20503;-77
2022/09/22 13:15:58;;;;;;;9.40;2.85;;;18.40;99.90;;;;;;5032624;28;20049;-76
2022/09/22 13:18:33;;;;;;;6.30;2.25;;;18.30;99.90;;;;;;5032407;28;20045;-77
2022/09/22 13:21:11;;;;;;;8.40;2.65;;;18.10;99.90;;;;;;4998479;28;20061;-75
2022/09/22 13:23:57;;;;;;;7.25;2.55;;;18.00;99.90;;;;;;5033566;28;20056;-83
2022/09/22 13:26:28;;;;;;;7.78;2.42;;;17.90;99.90;;;;;;5015056;28;20536;-82
2022/09/22 13:29:14;;;;;;;7.05;2.50;;;17.90;99.90;;;;;;4997681;28;20057;-83